sensor_id;sensor_type;location;lat;lon;timestamp;P1;durP1;ratioP1;P2;durP2;ratioP2
5831;SDS011;50943;51.448;7.646;2022-09-27T00:02:15;11.03;;;6.30;;
5831;SDS011;50943;51.448;7.646;2022-09-27T00:04:41;10.57;;;6.70;;
5831;SDS011;50943;51.448;7.646;2022-09-27T00:07:08;12.77;;;6.67;;
5831;SDS011;50943;51.448;7.646;2022-09-27T00:09:35;17.13;;;7.30;;
5831;SDS011;50943;51.448;7.646;2022-09-27T00:12:21;17.37;;;6.23;;
5831;SDS011;50943;51.448;7.646;2022-09-27T00:14:47;14.80;;;6.00;;
5831;SDS011;50943;51.448;7.646;2022-09-27T00:17:14;8.53;;;5.10;;
5831;SDS011;50943;51.448;7.646;2022-09-27T00:19:41;13.17;;;5.33;;
5831;SDS011;50943;51.448;7.646;2022-09-27T00:22:07;10.87;;;4.67;;
5831;SDS011;50943;51.448;7.646;2022-09-27T00:24:33;11.10;;;4.90;;
5831;SDS011;50943;51.448;7.646;2022-09-27T00:27:00;9.47;;;4.20;;
5831;SDS011;50943;51.448;7.646;2022-09-27T00:29:29;10.23;;;3.80;;
5831;SDS011;50943;51.448;7.646;2022-09-27T00:31:55;13.70;;;3.37;;
5831;SDS011;50943;51.448;7.646;2022-09-27T00:34:22;10.83;;;4.03;;
5831;SDS011;50943;51.448;7.646;2022-09-27T00:36:49;13.00;;;4.30;;
5831;SDS011;50943;51.448;7.646;2022-09-27T00:39:16;9.87;;;3.50;;
5831;SDS011;50943;51.448;7.646;2022-09-27T00:41:43;12.93;;;3.57;;
5831;SDS011;50943;51.448;7.646;2022-09-27T00:46:59;9.27;;;3.93;;
5831;SDS011;50943;51.448;7.646;2022-09-27T00:49:28;13.53;;;3.80;;
5831;SDS011;50943;51.448;7.646;2022-09-27T00:51:56;8.90;;;4.43;;
5831;SDS011;50943;51.448;7.646;2022-09-27T00:54:25;10.90;;;3.40;;
5831;SDS011;50943;51.448;7.646;2022-09-27T00:56:53;7.80;;;2.83;;
5831;SDS011;50943;51.448;7.646;2022-09-27T00:59:22;6.27;;;2.70;;
5831;SDS011;50943;51.448;7.646;2022-09-27T01:01:50;9.17;;;2.53;;
5831;SDS011;50943;51.448;7.646;2022-09-27T01:04:20;3.43;;;2.37;;
5831;SDS011;50943;51.448;7.646;2022-09-27T01:06:48;4.80;;;2.37;;
5831;SDS011;50943;51.448;7.646;2022-09-27T01:09:15;5.27;;;2.10;;
5831;SDS011;50943;51.448;7.646;2022-09-27T01:11:43;7.97;;;3.27;;
5831;SDS011;50943;51.448;7.646;2022-09-27T01:14:18;4.57;;;2.33;;
5831;SDS011;50943;51.448;7.646;2022-09-27T01:16:49;7.63;;;2.30;;
5831;SDS011;50943;51.448;7.646;2022-09-27T01:19:29;8.70;;;2.83;;
5831;SDS011;50943;51.448;7.646;2022-09-27T01:22:03;9.20;;;3.00;;
5831;SDS011;50943;51.448;7.646;2022-09-27T01:27:16;11.73;;;3.90;;
5831;SDS011;50943;51.448;7.646;2022-09-27T01:29:50;10.67;;;3.30;;
5831;SDS011;50943;51.448;7.646;2022-09-27T01:32:26;10.70;;;3.43;;
5831;SDS011;50943;51.448;7.646;2022-09-27T01:34:58;8.57;;;3.57;;
5831;SDS011;50943;51.448;7.646;2022-09-27T01:37:30;9.87;;;4.07;;
5831;SDS011;50943;51.448;7.646;2022-09-27T01:40:05;8.63;;;4.10;;
5831;SDS011;50943;51.448;7.646;2022-09-27T01:42:36;13.30;;;4.20;;
5831;SDS011;50943;51.448;7.646;2022-09-27T01:45:05;7.63;;;4.10;;
5831;SDS011;50943;51.448;7.646;2022-09-27T01:47:38;13.23;;;5.20;;
5831;SDS011;50943;51.448;7.646;2022-09-27T01:50:07;11.90;;;4.83;;
5831;SDS011;50943;51.448;7.646;2022-09-27T01:52:36;13.07;;;4.60;;
5831;SDS011;50943;51.448;7.646;2022-09-27T01:55:05;10.80;;;5.10;;
5831;SDS011;50943;51.448;7.646;2022-09-27T01:57:34;15.10;;;5.47;;
5831;SDS011;50943;51.448;7.646;2022-09-27T02:00:03;11.87;;;6.17;;
5831;SDS011;50943;51.448;7.646;2022-09-27T02:02:32;10.90;;;6.30;;
5831;SDS011;50943;51.448;7.646;2022-09-27T02:05:01;16.00;;;5.87;;
5831;SDS011;50943;51.448;7.646;2022-09-27T02:07:31;15.20;;;6.23;;
5831;SDS011;50943;51.448;7.646;2022-09-27T02:10:01;15.03;;;6.00;;
5831;SDS011;50943;51.448;7.646;2022-09-27T02:12:48;14.07;;;5.60;;
5831;SDS011;50943;51.448;7.646;2022-09-27T02:15:17;14.60;;;6.40;;
5831;SDS011;50943;51.448;7.646;2022-09-27T02:17:45;15.90;;;7.10;;
5831;SDS011;50943;51.448;7.646;2022-09-27T02:20:14;18.03;;;6.43;;
5831;SDS011;50943;51.448;7.646;2022-09-27T02:22:43;18.00;;;6.90;;
5831;SDS011;50943;51.448;7.646;2022-09-27T02:25:12;15.97;;;7.30;;
5831;SDS011;50943;51.448;7.646;2022-09-27T02:27:43;15.57;;;6.63;;
5831;SDS011;50943;51.448;7.646;2022-09-27T02:30:13;14.93;;;7.90;;
5831;SDS011;50943;51.448;7.646;2022-09-27T02:32:41;17.70;;;7.87;;
5831;SDS011;50943;51.448;7.646;2022-09-27T02:35:08;13.87;;;8.63;;
5831;SDS011;50943;51.448;7.646;2022-09-27T02:37:39;20.40;;;8.17;;
5831;SDS011;50943;51.448;7.646;2022-09-27T02:40:06;13.80;;;8.73;;
5831;SDS011;50943;51.448;7.646;2022-09-27T02:42:32;14.50;;;8.70;;
5831;SDS011;50943;51.448;7.646;2022-09-27T02:45:01;17.17;;;9.13;;
5831;SDS011;50943;51.448;7.646;2022-09-27T02:47:32;18.03;;;9.67;;
5831;SDS011;50943;51.448;7.646;2022-09-27T02:50:07;23.93;;;11.20;;
5831;SDS011;50943;51.448;7.646;2022-09-27T02:52:40;22.10;;;10.93;;
5831;SDS011;50943;51.448;7.646;2022-09-27T02:55:10;26.33;;;10.80;;
5831;SDS011;50943;51.448;7.646;2022-09-27T02:57:40;21.40;;;12.57;;
5831;SDS011;50943;51.448;7.646;2022-09-27T03:00:13;28.43;;;11.83;;
5831;SDS011;50943;51.448;7.646;2022-09-27T03:02:46;28.90;;;11.73;;
5831;SDS011;50943;51.448;7.646;2022-09-27T03:05:16;25.03;;;13.00;;
5831;SDS011;50943;51.448;7.646;2022-09-27T03:07:45;27.97;;;12.90;;
5831;SDS011;50943;51.448;7.646;2022-09-27T03:10:14;21.47;;;12.97;;
5831;SDS011;50943;51.448;7.646;2022-09-27T03:12:41;26.40;;;13.70;;
5831;SDS011;50943;51.448;7.646;2022-09-27T03:15:08;24.90;;;13.60;;
5831;SDS011;50943;51.448;7.646;2022-09-27T03:17:35;32.00;;;14.50;;
5831;SDS011;50943;51.448;7.646;2022-09-27T03:20:02;27.27;;;14.20;;
5831;SDS011;50943;51.448;7.646;2022-09-27T03:22:29;22.50;;;13.60;;
5831;SDS011;50943;51.448;7.646;2022-09-27T03:24:57;24.93;;;13.23;;
5831;SDS011;50943;51.448;7.646;2022-09-27T03:27:24;27.03;;;13.73;;
5831;SDS011;50943;51.448;7.646;2022-09-27T03:29:50;20.90;;;11.37;;
5831;SDS011;50943;51.448;7.646;2022-09-27T03:32:17;19.47;;;11.47;;
5831;SDS011;50943;51.448;7.646;2022-09-27T03:34:44;19.83;;;11.00;;
5831;SDS011;50943;51.448;7.646;2022-09-27T03:37:10;16.40;;;10.20;;
5831;SDS011;50943;51.448;7.646;2022-09-27T03:39:37;26.33;;;10.67;;
5831;SDS011;50943;51.448;7.646;2022-09-27T03:42:06;24.50;;;10.70;;
5831;SDS011;50943;51.448;7.646;2022-09-27T03:44:32;22.40;;;10.70;;
5831;SDS011;50943;51.448;7.646;2022-09-27T03:46:59;28.80;;;11.43;;
5831;SDS011;50943;51.448;7.646;2022-09-27T03:49:26;23.73;;;9.67;;
5831;SDS011;50943;51.448;7.646;2022-09-27T03:51:53;17.67;;;10.37;;
5831;SDS011;50943;51.448;7.646;2022-09-27T03:54:20;16.63;;;9.80;;
5831;SDS011;50943;51.448;7.646;2022-09-27T03:56:46;20.93;;;10.60;;
5831;SDS011;50943;51.448;7.646;2022-09-27T03:59:15;16.97;;;10.00;;
5831;SDS011;50943;51.448;7.646;2022-09-27T04:01:41;25.27;;;9.43;;
5831;SDS011;50943;51.448;7.646;2022-09-27T04:04:09;16.00;;;9.73;;
5831;SDS011;50943;51.448;7.646;2022-09-27T04:06:36;18.60;;;10.50;;
5831;SDS011;50943;51.448;7.646;2022-09-27T04:09:02;17.07;;;9.77;;
5831;SDS011;50943;51.448;7.646;2022-09-27T04:11:29;16.43;;;9.63;;
5831;SDS011;50943;51.448;7.646;2022-09-27T04:13:56;17.20;;;9.97;;
5831;SDS011;50943;51.448;7.646;2022-09-27T04:16:25;18.60;;;10.47;;
5831;SDS011;50943;51.448;7.646;2022-09-27T04:18:51;19.30;;;10.10;;
5831;SDS011;50943;51.448;7.646;2022-09-27T04:21:18;21.70;;;10.33;;
5831;SDS011;50943;51.448;7.646;2022-09-27T04:23:46;15.57;;;9.23;;
5831;SDS011;50943;51.448;7.646;2022-09-27T04:26:13;20.73;;;9.50;;
5831;SDS011;50943;51.448;7.646;2022-09-27T04:28:40;18.27;;;9.77;;
5831;SDS011;50943;51.448;7.646;2022-09-27T04:31:07;21.27;;;9.90;;
5831;SDS011;50943;51.448;7.646;2022-09-27T04:33:35;20.80;;;9.27;;
5831;SDS011;50943;51.448;7.646;2022-09-27T04:36:02;18.87;;;8.30;;
5831;SDS011;50943;51.448;7.646;2022-09-27T04:38:46;15.43;;;8.80;;
5831;SDS011;50943;51.448;7.646;2022-09-27T04:41:14;14.33;;;7.73;;
5831;SDS011;50943;51.448;7.646;2022-09-27T04:43:40;21.30;;;9.33;;
5831;SDS011;50943;51.448;7.646;2022-09-27T04:46:07;17.93;;;8.67;;
5831;SDS011;50943;51.448;7.646;2022-09-27T04:48:36;18.30;;;8.23;;
5831;SDS011;50943;51.448;7.646;2022-09-27T04:51:02;15.60;;;8.33;;
5831;SDS011;50943;51.448;7.646;2022-09-27T04:53:29;19.10;;;7.53;;
5831;SDS011;50943;51.448;7.646;2022-09-27T04:55:56;20.90;;;9.80;;
5831;SDS011;50943;51.448;7.646;2022-09-27T04:58:23;22.70;;;10.07;;
5831;SDS011;50943;51.448;7.646;2022-09-27T05:00:50;22.70;;;11.67;;
5831;SDS011;50943;51.448;7.646;2022-09-27T05:03:19;31.43;;;11.87;;
5831;SDS011;50943;51.448;7.646;2022-09-27T05:05:48;24.20;;;11.37;;
5831;SDS011;50943;51.448;7.646;2022-09-27T05:08:14;27.80;;;12.23;;
5831;SDS011;50943;51.448;7.646;2022-09-27T05:10:41;38.73;;;16.17;;
5831;SDS011;50943;51.448;7.646;2022-09-27T05:13:09;31.23;;;14.23;;
5831;SDS011;50943;51.448;7.646;2022-09-27T05:15:35;26.30;;;14.47;;
5831;SDS011;50943;51.448;7.646;2022-09-27T05:18:03;31.60;;;15.67;;
5831;SDS011;50943;51.448;7.646;2022-09-27T05:20:31;29.50;;;15.10;;
5831;SDS011;50943;51.448;7.646;2022-09-27T05:22:59;31.67;;;15.70;;
5831;SDS011;50943;51.448;7.646;2022-09-27T05:25:27;34.30;;;14.67;;
5831;SDS011;50943;51.448;7.646;2022-09-27T05:27:55;28.10;;;14.60;;
5831;SDS011;50943;51.448;7.646;2022-09-27T05:30:22;31.20;;;15.37;;
5831;SDS011;50943;51.448;7.646;2022-09-27T05:32:49;32.73;;;15.40;;
5831;SDS011;50943;51.448;7.646;2022-09-27T05:35:17;36.67;;;16.13;;
5831;SDS011;50943;51.448;7.646;2022-09-27T05:37:49;27.00;;;14.33;;
5831;SDS011;50943;51.448;7.646;2022-09-27T05:40:17;34.03;;;14.73;;
5831;SDS011;50943;51.448;7.646;2022-09-27T05:42:47;28.50;;;14.00;;
5831;SDS011;50943;51.448;7.646;2022-09-27T05:45:14;30.50;;;15.87;;
5831;SDS011;50943;51.448;7.646;2022-09-27T05:47:41;30.93;;;15.37;;
5831;SDS011;50943;51.448;7.646;2022-09-27T05:50:08;34.03;;;14.70;;
5831;SDS011;50943;51.448;7.646;2022-09-27T05:52:35;31.27;;;14.67;;
5831;SDS011;50943;51.448;7.646;2022-09-27T05:55:03;31.73;;;13.77;;
5831;SDS011;50943;51.448;7.646;2022-09-27T05:57:31;30.20;;;13.30;;
5831;SDS011;50943;51.448;7.646;2022-09-27T05:59:59;31.83;;;14.53;;
5831;SDS011;50943;51.448;7.646;2022-09-27T06:02:26;36.10;;;14.00;;
5831;SDS011;50943;51.448;7.646;2022-09-27T06:04:52;30.53;;;13.40;;
5831;SDS011;50943;51.448;7.646;2022-09-27T06:07:19;42.43;;;16.10;;
5831;SDS011;50943;51.448;7.646;2022-09-27T06:09:46;36.10;;;15.80;;
5831;SDS011;50943;51.448;7.646;2022-09-27T06:12:13;35.30;;;15.90;;
5831;SDS011;50943;51.448;7.646;2022-09-27T06:14:42;41.87;;;17.93;;
5831;SDS011;50943;51.448;7.646;2022-09-27T06:17:08;34.47;;;17.37;;
5831;SDS011;50943;51.448;7.646;2022-09-27T06:19:35;34.20;;;16.90;;
5831;SDS011;50943;51.448;7.646;2022-09-27T06:22:02;43.07;;;18.87;;
5831;SDS011;50943;51.448;7.646;2022-09-27T06:24:28;41.53;;;18.57;;
5831;SDS011;50943;51.448;7.646;2022-09-27T06:26:55;39.90;;;18.40;;
5831;SDS011;50943;51.448;7.646;2022-09-27T06:29:22;45.17;;;19.43;;
5831;SDS011;50943;51.448;7.646;2022-09-27T06:31:50;36.47;;;17.33;;
5831;SDS011;50943;51.448;7.646;2022-09-27T06:34:17;41.40;;;17.87;;
5831;SDS011;50943;51.448;7.646;2022-09-27T06:36:48;46.10;;;18.97;;
5831;SDS011;50943;51.448;7.646;2022-09-27T06:39:14;48.43;;;18.77;;
5831;SDS011;50943;51.448;7.646;2022-09-27T06:41:41;42.90;;;19.70;;
5831;SDS011;50943;51.448;7.646;2022-09-27T06:44:08;48.13;;;19.20;;
5831;SDS011;50943;51.448;7.646;2022-09-27T06:46:36;35.20;;;18.23;;
5831;SDS011;50943;51.448;7.646;2022-09-27T06:49:05;45.60;;;19.13;;
5831;SDS011;50943;51.448;7.646;2022-09-27T06:51:33;35.73;;;18.03;;
5831;SDS011;50943;51.448;7.646;2022-09-27T06:54:00;40.00;;;17.53;;
5831;SDS011;50943;51.448;7.646;2022-09-27T06:56:27;40.30;;;17.23;;
5831;SDS011;50943;51.448;7.646;2022-09-27T06:58:54;31.50;;;16.13;;
5831;SDS011;50943;51.448;7.646;2022-09-27T07:01:38;28.50;;;15.97;;
5831;SDS011;50943;51.448;7.646;2022-09-27T07:04:08;28.03;;;14.10;;
5831;SDS011;50943;51.448;7.646;2022-09-27T07:06:36;26.33;;;13.90;;
5831;SDS011;50943;51.448;7.646;2022-09-27T07:09:03;29.80;;;15.13;;
5831;SDS011;50943;51.448;7.646;2022-09-27T07:11:31;23.13;;;12.67;;
5831;SDS011;50943;51.448;7.646;2022-09-27T07:14:00;22.13;;;11.87;;
5831;SDS011;50943;51.448;7.646;2022-09-27T07:16:28;22.80;;;11.07;;
5831;SDS011;50943;51.448;7.646;2022-09-27T07:18:55;21.20;;;11.27;;
5831;SDS011;50943;51.448;7.646;2022-09-27T07:21:23;18.67;;;9.70;;
5831;SDS011;50943;51.448;7.646;2022-09-27T07:23:50;18.47;;;8.63;;
5831;SDS011;50943;51.448;7.646;2022-09-27T07:26:17;21.13;;;8.33;;
5831;SDS011;50943;51.448;7.646;2022-09-27T07:28:44;16.53;;;7.20;;
5831;SDS011;50943;51.448;7.646;2022-09-27T07:31:11;11.50;;;6.53;;
5831;SDS011;50943;51.448;7.646;2022-09-27T07:33:38;17.80;;;6.60;;
5831;SDS011;50943;51.448;7.646;2022-09-27T07:36:06;11.37;;;7.20;;
5831;SDS011;50943;51.448;7.646;2022-09-27T07:38:34;12.53;;;7.83;;
5831;SDS011;50943;51.448;7.646;2022-09-27T07:41:04;13.97;;;7.17;;
5831;SDS011;50943;51.448;7.646;2022-09-27T07:43:30;12.90;;;7.03;;
5831;SDS011;50943;51.448;7.646;2022-09-27T07:45:58;12.00;;;6.63;;
5831;SDS011;50943;51.448;7.646;2022-09-27T07:48:24;12.13;;;6.87;;
5831;SDS011;50943;51.448;7.646;2022-09-27T07:50:52;8.40;;;6.40;;
5831;SDS011;50943;51.448;7.646;2022-09-27T07:53:18;10.40;;;6.70;;
5831;SDS011;50943;51.448;7.646;2022-09-27T07:55:50;10.33;;;5.93;;
5831;SDS011;50943;51.448;7.646;2022-09-27T07:58:17;8.20;;;5.97;;
5831;SDS011;50943;51.448;7.646;2022-09-27T08:00:45;8.83;;;5.97;;
5831;SDS011;50943;51.448;7.646;2022-09-27T08:03:13;8.00;;;5.60;;
5831;SDS011;50943;51.448;7.646;2022-09-27T08:05:40;8.53;;;5.60;;
5831;SDS011;50943;51.448;7.646;2022-09-27T08:08:07;16.63;;;6.00;;
5831;SDS011;50943;51.448;7.646;2022-09-27T08:10:34;8.60;;;5.57;;
5831;SDS011;50943;51.448;7.646;2022-09-27T08:13:02;9.83;;;5.00;;
5831;SDS011;50943;51.448;7.646;2022-09-27T08:15:30;8.33;;;5.07;;
5831;SDS011;50943;51.448;7.646;2022-09-27T08:17:56;5.90;;;4.60;;
5831;SDS011;50943;51.448;7.646;2022-09-27T08:20:23;6.97;;;4.77;;
5831;SDS011;50943;51.448;7.646;2022-09-27T08:22:50;6.80;;;4.53;;
5831;SDS011;50943;51.448;7.646;2022-09-27T08:25:17;10.00;;;5.07;;
5831;SDS011;50943;51.448;7.646;2022-09-27T08:27:53;6.60;;;4.50;;
5831;SDS011;50943;51.448;7.646;2022-09-27T08:30:21;7.80;;;3.93;;
5831;SDS011;50943;51.448;7.646;2022-09-27T08:32:48;8.83;;;4.33;;
5831;SDS011;50943;51.448;7.646;2022-09-27T08:35:14;4.60;;;3.40;;
5831;SDS011;50943;51.448;7.646;2022-09-27T08:37:41;6.20;;;3.20;;
5831;SDS011;50943;51.448;7.646;2022-09-27T08:40:09;4.90;;;2.90;;
5831;SDS011;50943;51.448;7.646;2022-09-27T08:42:38;4.63;;;3.20;;
5831;SDS011;50943;51.448;7.646;2022-09-27T08:45:10;4.97;;;2.70;;
5831;SDS011;50943;51.448;7.646;2022-09-27T08:47:39;4.77;;;2.50;;
5831;SDS011;50943;51.448;7.646;2022-09-27T08:50:18;4.00;;;2.10;;
5831;SDS011;50943;51.448;7.646;2022-09-27T08:52:47;4.23;;;2.00;;
5831;SDS011;50943;51.448;7.646;2022-09-27T08:55:19;6.03;;;2.10;;
5831;SDS011;50943;51.448;7.646;2022-09-27T08:57:47;4.80;;;1.77;;
5831;SDS011;50943;51.448;7.646;2022-09-27T09:00:15;5.37;;;1.73;;
5831;SDS011;50943;51.448;7.646;2022-09-27T09:02:43;8.93;;;1.83;;
5831;SDS011;50943;51.448;7.646;2022-09-27T09:05:11;4.90;;;2.27;;
5831;SDS011;50943;51.448;7.646;2022-09-27T09:10:31;5.77;;;1.60;;
5831;SDS011;50943;51.448;7.646;2022-09-27T09:13:19;6.40;;;1.70;;
5831;SDS011;50943;51.448;7.646;2022-09-27T09:15:51;6.10;;;1.80;;
5831;SDS011;50943;51.448;7.646;2022-09-27T09:18:37;2.73;;;2.17;;
5831;SDS011;50943;51.448;7.646;2022-09-27T09:21:10;6.23;;;2.20;;
5831;SDS011;50943;51.448;7.646;2022-09-27T09:23:48;3.50;;;2.60;;
5831;SDS011;50943;51.448;7.646;2022-09-27T09:26:21;3.97;;;1.63;;
5831;SDS011;50943;51.448;7.646;2022-09-27T09:28:55;4.03;;;1.93;;
5831;SDS011;50943;51.448;7.646;2022-09-27T09:31:28;7.17;;;3.10;;
5831;SDS011;50943;51.448;7.646;2022-09-27T09:33:59;5.83;;;2.67;;
5831;SDS011;50943;51.448;7.646;2022-09-27T09:36:30;8.73;;;3.40;;
5831;SDS011;50943;51.448;7.646;2022-09-27T09:38:58;3.60;;;1.80;;
5831;SDS011;50943;51.448;7.646;2022-09-27T09:41:28;3.00;;;1.30;;
5831;SDS011;50943;51.448;7.646;2022-09-27T09:44:00;2.70;;;1.13;;
5831;SDS011;50943;51.448;7.646;2022-09-27T09:46:30;2.90;;;0.90;;
5831;SDS011;50943;51.448;7.646;2022-09-27T09:49:00;1.73;;;1.00;;
5831;SDS011;50943;51.448;7.646;2022-09-27T09:51:32;3.03;;;1.10;;
5831;SDS011;50943;51.448;7.646;2022-09-27T09:54:02;4.40;;;1.20;;
5831;SDS011;50943;51.448;7.646;2022-09-27T09:56:31;1.77;;;1.10;;
5831;SDS011;50943;51.448;7.646;2022-09-27T09:58:59;2.03;;;1.00;;
5831;SDS011;50943;51.448;7.646;2022-09-27T10:01:29;2.37;;;1.00;;
5831;SDS011;50943;51.448;7.646;2022-09-27T10:04:00;5.27;;;0.90;;
5831;SDS011;50943;51.448;7.646;2022-09-27T10:06:27;1.73;;;1.00;;
5831;SDS011;50943;51.448;7.646;2022-09-27T10:08:54;2.43;;;1.10;;
5831;SDS011;50943;51.448;7.646;2022-09-27T10:11:22;2.10;;;1.00;;
5831;SDS011;50943;51.448;7.646;2022-09-27T10:13:49;2.67;;;1.13;;
5831;SDS011;50943;51.448;7.646;2022-09-27T10:16:17;2.60;;;1.07;;
5831;SDS011;50943;51.448;7.646;2022-09-27T10:18:45;3.50;;;0.80;;
5831;SDS011;50943;51.448;7.646;2022-09-27T10:21:16;3.10;;;1.00;;
5831;SDS011;50943;51.448;7.646;2022-09-27T10:24:01;4.23;;;0.90;;
5831;SDS011;50943;51.448;7.646;2022-09-27T10:26:29;3.07;;;1.07;;
5831;SDS011;50943;51.448;7.646;2022-09-27T10:28:56;1.20;;;0.80;;
5831;SDS011;50943;51.448;7.646;2022-09-27T10:31:22;7.80;;;1.10;;
5831;SDS011;50943;51.448;7.646;2022-09-27T10:33:50;1.27;;;0.90;;
5831;SDS011;50943;51.448;7.646;2022-09-27T10:36:23;1.60;;;0.80;;
5831;SDS011;50943;51.448;7.646;2022-09-27T10:38:51;2.90;;;0.83;;
5831;SDS011;50943;51.448;7.646;2022-09-27T10:41:21;7.13;;;2.67;;
5831;SDS011;50943;51.448;7.646;2022-09-27T10:43:49;5.13;;;1.90;;
5831;SDS011;50943;51.448;7.646;2022-09-27T10:46:19;7.00;;;3.53;;
5831;SDS011;50943;51.448;7.646;2022-09-27T10:48:49;3.23;;;1.67;;
5831;SDS011;50943;51.448;7.646;2022-09-27T10:51:34;3.97;;;1.00;;
5831;SDS011;50943;51.448;7.646;2022-09-27T10:54:01;2.07;;;0.70;;
5831;SDS011;50943;51.448;7.646;2022-09-27T10:56:29;1.70;;;0.83;;
5831;SDS011;50943;51.448;7.646;2022-09-27T10:58:56;3.27;;;1.00;;
5831;SDS011;50943;51.448;7.646;2022-09-27T11:01:24;2.40;;;1.20;;
5831;SDS011;50943;51.448;7.646;2022-09-27T11:03:52;2.27;;;0.80;;
5831;SDS011;50943;51.448;7.646;2022-09-27T11:06:28;1.93;;;0.73;;
5831;SDS011;50943;51.448;7.646;2022-09-27T11:09:08;1.93;;;0.90;;
5831;SDS011;50943;51.448;7.646;2022-09-27T11:11:36;2.37;;;1.00;;
5831;SDS011;50943;51.448;7.646;2022-09-27T11:14:03;2.13;;;0.87;;
5831;SDS011;50943;51.448;7.646;2022-09-27T11:16:36;3.00;;;1.23;;
5831;SDS011;50943;51.448;7.646;2022-09-27T11:19:10;1.93;;;1.07;;
5831;SDS011;50943;51.448;7.646;2022-09-27T11:21:42;3.00;;;1.20;;
5831;SDS011;50943;51.448;7.646;2022-09-27T11:24:26;2.03;;;1.00;;
5831;SDS011;50943;51.448;7.646;2022-09-27T11:26:59;1.37;;;1.00;;
5831;SDS011;50943;51.448;7.646;2022-09-27T11:29:32;2.73;;;1.20;;
5831;SDS011;50943;51.448;7.646;2022-09-27T11:32:07;2.30;;;1.30;;
5831;SDS011;50943;51.448;7.646;2022-09-27T11:37:25;2.37;;;1.50;;
5831;SDS011;50943;51.448;7.646;2022-09-27T11:40:00;4.37;;;1.30;;
5831;SDS011;50943;51.448;7.646;2022-09-27T11:42:38;4.37;;;1.17;;
5831;SDS011;50943;51.448;7.646;2022-09-27T11:45:14;1.50;;;1.00;;
5831;SDS011;50943;51.448;7.646;2022-09-27T11:47:45;2.10;;;1.00;;
5831;SDS011;50943;51.448;7.646;2022-09-27T11:53:06;3.23;;;1.07;;
5831;SDS011;50943;51.448;7.646;2022-09-27T11:55:39;14.13;;;1.40;;
5831;SDS011;50943;51.448;7.646;2022-09-27T11:58:09;5.97;;;1.10;;
5831;SDS011;50943;51.448;7.646;2022-09-27T12:00:43;1.77;;;1.30;;
5831;SDS011;50943;51.448;7.646;2022-09-27T12:06:02;1.53;;;1.03;;
5831;SDS011;50943;51.448;7.646;2022-09-27T12:08:32;4.83;;;1.20;;
5831;SDS011;50943;51.448;7.646;2022-09-27T12:11:03;2.23;;;1.10;;
5831;SDS011;50943;51.448;7.646;2022-09-27T12:13:35;3.77;;;1.33;;
5831;SDS011;50943;51.448;7.646;2022-09-27T12:16:02;1.63;;;1.00;;
5831;SDS011;50943;51.448;7.646;2022-09-27T12:18:29;1.40;;;0.80;;
5831;SDS011;50943;51.448;7.646;2022-09-27T12:20:58;2.20;;;1.40;;
5831;SDS011;50943;51.448;7.646;2022-09-27T12:23:28;2.70;;;0.87;;
5831;SDS011;50943;51.448;7.646;2022-09-27T12:25:59;1.50;;;0.97;;
5831;SDS011;50943;51.448;7.646;2022-09-27T12:28:31;1.60;;;0.90;;
5831;SDS011;50943;51.448;7.646;2022-09-27T12:31:02;1.60;;;0.80;;
5831;SDS011;50943;51.448;7.646;2022-09-27T12:33:32;1.70;;;1.00;;
5831;SDS011;50943;51.448;7.646;2022-09-27T12:36:02;1.77;;;1.00;;
5831;SDS011;50943;51.448;7.646;2022-09-27T12:38:34;3.23;;;1.00;;
5831;SDS011;50943;51.448;7.646;2022-09-27T12:41:02;3.47;;;0.93;;
5831;SDS011;50943;51.448;7.646;2022-09-27T12:43:32;1.97;;;0.90;;
5831;SDS011;50943;51.448;7.646;2022-09-27T12:46:02;3.87;;;0.90;;
5831;SDS011;50943;51.448;7.646;2022-09-27T12:48:34;3.67;;;0.80;;
5831;SDS011;50943;51.448;7.646;2022-09-27T12:51:05;3.20;;;1.10;;
5831;SDS011;50943;51.448;7.646;2022-09-27T12:53:36;3.00;;;1.07;;
5831;SDS011;50943;51.448;7.646;2022-09-27T12:56:08;1.73;;;0.97;;
5831;SDS011;50943;51.448;7.646;2022-09-27T13:01:32;4.80;;;1.00;;
5831;SDS011;50943;51.448;7.646;2022-09-27T13:04:09;2.47;;;1.00;;
5831;SDS011;50943;51.448;7.646;2022-09-27T13:06:41;4.00;;;0.87;;
5831;SDS011;50943;51.448;7.646;2022-09-27T13:09:35;2.70;;;1.47;;
5831;SDS011;50943;51.448;7.646;2022-09-27T13:12:05;3.47;;;2.00;;
5831;SDS011;50943;51.448;7.646;2022-09-27T13:14:38;2.00;;;1.30;;
5831;SDS011;50943;51.448;7.646;2022-09-27T13:17:08;4.53;;;2.00;;
5831;SDS011;50943;51.448;7.646;2022-09-27T13:19:55;6.40;;;1.30;;
5831;SDS011;50943;51.448;7.646;2022-09-27T13:22:37;6.77;;;2.87;;
5831;SDS011;50943;51.448;7.646;2022-09-27T13:27:46;5.20;;;2.40;;
5831;SDS011;50943;51.448;7.646;2022-09-27T13:33:33;3.60;;;2.33;;
5831;SDS011;50943;51.448;7.646;2022-09-27T13:36:05;4.77;;;2.00;;
5831;SDS011;50943;51.448;7.646;2022-09-27T13:38:32;4.03;;;2.30;;
5831;SDS011;50943;51.448;7.646;2022-09-27T13:41:11;4.10;;;2.30;;
5831;SDS011;50943;51.448;7.646;2022-09-27T13:43:41;3.70;;;2.20;;
5831;SDS011;50943;51.448;7.646;2022-09-27T13:46:13;4.83;;;2.87;;
5831;SDS011;50943;51.448;7.646;2022-09-27T13:48:44;5.90;;;2.60;;
5831;SDS011;50943;51.448;7.646;2022-09-27T13:51:19;3.60;;;2.23;;
5831;SDS011;50943;51.448;7.646;2022-09-27T13:53:54;8.60;;;2.90;;
5831;SDS011;50943;51.448;7.646;2022-09-27T13:59:03;3.70;;;2.63;;
5831;SDS011;50943;51.448;7.646;2022-09-27T14:01:32;6.60;;;2.57;;
5831;SDS011;50943;51.448;7.646;2022-09-27T14:04:03;4.73;;;3.30;;
5831;SDS011;50943;51.448;7.646;2022-09-27T14:06:31;5.10;;;3.00;;
5831;SDS011;50943;51.448;7.646;2022-09-27T14:09:00;6.00;;;3.23;;
5831;SDS011;50943;51.448;7.646;2022-09-27T14:11:29;4.40;;;3.17;;
5831;SDS011;50943;51.448;7.646;2022-09-27T14:13:58;5.10;;;3.20;;
5831;SDS011;50943;51.448;7.646;2022-09-27T14:16:27;7.50;;;3.00;;
5831;SDS011;50943;51.448;7.646;2022-09-27T14:18:56;7.23;;;3.93;;
5831;SDS011;50943;51.448;7.646;2022-09-27T14:21:29;5.63;;;2.90;;
5831;SDS011;50943;51.448;7.646;2022-09-27T14:26:41;6.17;;;3.40;;
5831;SDS011;50943;51.448;7.646;2022-09-27T14:29:14;3.30;;;2.33;;
5831;SDS011;50943;51.448;7.646;2022-09-27T14:31:40;6.30;;;2.90;;
5831;SDS011;50943;51.448;7.646;2022-09-27T14:34:07;3.50;;;2.70;;
5831;SDS011;50943;51.448;7.646;2022-09-27T14:36:35;4.50;;;2.63;;
5831;SDS011;50943;51.448;7.646;2022-09-27T14:39:21;5.70;;;3.47;;
5831;SDS011;50943;51.448;7.646;2022-09-27T14:41:48;5.77;;;3.60;;
5831;SDS011;50943;51.448;7.646;2022-09-27T14:44:15;6.20;;;3.70;;
5831;SDS011;50943;51.448;7.646;2022-09-27T14:46:42;6.73;;;4.87;;
5831;SDS011;50943;51.448;7.646;2022-09-27T14:49:18;8.33;;;4.13;;
5831;SDS011;50943;51.448;7.646;2022-09-27T14:51:50;4.97;;;3.63;;
5831;SDS011;50943;51.448;7.646;2022-09-27T14:54:19;5.37;;;4.17;;
5831;SDS011;50943;51.448;7.646;2022-09-27T14:56:46;15.50;;;7.27;;
5831;SDS011;50943;51.448;7.646;2022-09-27T14:59:13;7.83;;;4.90;;
5831;SDS011;50943;51.448;7.646;2022-09-27T15:01:46;6.97;;;4.57;;
5831;SDS011;50943;51.448;7.646;2022-09-27T15:04:14;6.20;;;4.20;;
5831;SDS011;50943;51.448;7.646;2022-09-27T15:06:41;8.50;;;4.80;;
5831;SDS011;50943;51.448;7.646;2022-09-27T15:09:11;5.27;;;3.67;;
5831;SDS011;50943;51.448;7.646;2022-09-27T15:11:39;5.03;;;3.67;;
5831;SDS011;50943;51.448;7.646;2022-09-27T15:14:06;5.60;;;4.07;;
5831;SDS011;50943;51.448;7.646;2022-09-27T15:16:35;3.50;;;2.87;;
5831;SDS011;50943;51.448;7.646;2022-09-27T15:19:04;4.80;;;3.17;;
5831;SDS011;50943;51.448;7.646;2022-09-27T15:21:32;5.63;;;3.40;;
5831;SDS011;50943;51.448;7.646;2022-09-27T15:23:59;3.03;;;2.27;;
5831;SDS011;50943;51.448;7.646;2022-09-27T15:26:32;5.63;;;4.47;;
5831;SDS011;50943;51.448;7.646;2022-09-27T15:29:00;4.43;;;3.33;;
5831;SDS011;50943;51.448;7.646;2022-09-27T15:31:27;3.73;;;3.30;;
5831;SDS011;50943;51.448;7.646;2022-09-27T15:33:55;8.77;;;3.63;;
5831;SDS011;50943;51.448;7.646;2022-09-27T15:36:48;6.87;;;3.50;;